createdAt,value
2023-05-09T00:01:05.265Z,6.50
2023-05-09T00:03:36.339Z,6.50
2023-05-09T00:06:07.163Z,6.50
2023-05-09T00:08:35.134Z,6.50
2023-05-09T00:11:04.595Z,6.40
2023-05-09T00:13:32.522Z,6.40
2023-05-09T00:16:03.859Z,6.40
2023-05-09T00:18:31.780Z,6.40
2023-05-09T00:21:00.100Z,6.30
2023-05-09T00:23:27.922Z,6.30
2023-05-09T00:25:56.478Z,6.20
2023-05-09T00:28:24.212Z,6.20
2023-05-09T00:30:52.809Z,6.10
2023-05-09T00:33:21.356Z,6.10
2023-05-09T00:35:50.149Z,6.00
2023-05-09T00:38:17.983Z,6.00
2023-05-09T00:40:46.778Z,5.90
2023-05-09T00:43:14.488Z,5.80
2023-05-09T00:45:45.910Z,5.80
2023-05-09T00:48:15.709Z,5.70
2023-05-09T00:50:44.333Z,5.60
2023-05-09T00:53:13.852Z,5.50
2023-05-09T00:55:43.443Z,5.50
2023-05-09T00:58:11.980Z,5.30
2023-05-09T01:00:40.370Z,5.30
2023-05-09T01:03:08.813Z,5.20
2023-05-09T01:06:04.052Z,5.10
2023-05-09T01:08:38.082Z,5.00
2023-05-09T01:11:31.777Z,5.00
2023-05-09T01:14:23.502Z,4.90
2023-05-09T01:17:04.349Z,4.80
2023-05-09T01:19:51.599Z,4.70
2023-05-09T01:22:24.105Z,4.70
2023-05-09T01:25:13.653Z,4.70
2023-05-09T01:27:47.688Z,4.70
2023-05-09T01:30:18.030Z,4.60
2023-05-09T01:32:50.695Z,4.50
2023-05-09T01:35:25.424Z,4.50
2023-05-09T01:40:26.318Z,4.30
2023-05-09T01:43:23.146Z,4.30
2023-05-09T01:45:53.300Z,4.30
2023-05-09T01:48:22.403Z,4.30
2023-05-09T01:50:50.210Z,4.30
2023-05-09T01:53:19.178Z,4.30
2023-05-09T01:55:48.840Z,4.30
2023-05-09T01:58:18.751Z,4.30
2023-05-09T02:00:48.792Z,4.30
2023-05-09T02:03:18.231Z,4.30
2023-05-09T02:05:47.896Z,4.30
2023-05-09T02:08:18.186Z,4.40
2023-05-09T02:10:48.307Z,4.40
2023-05-09T02:13:17.056Z,4.40
2023-05-09T02:15:46.269Z,4.40
2023-05-09T02:18:14.447Z,4.50
2023-05-09T02:20:42.268Z,4.50
2023-05-09T02:23:10.451Z,4.50
2023-05-09T02:25:40.347Z,4.50
2023-05-09T02:28:10.461Z,4.50
2023-05-09T02:30:43.219Z,4.50
2023-05-09T02:33:13.080Z,4.50
2023-05-09T02:35:44.361Z,4.50
2023-05-09T02:38:14.670Z,4.40
2023-05-09T02:40:44.868Z,4.30
2023-05-09T02:43:16.164Z,4.30
2023-05-09T02:45:44.216Z,4.20
2023-05-09T02:48:12.658Z,4.20
2023-05-09T02:50:43.154Z,4.20
2023-05-09T02:53:11.325Z,4.20
2023-05-09T02:55:42.394Z,4.10
2023-05-09T02:58:14.629Z,4.10
2023-05-09T03:00:43.968Z,4.10
2023-05-09T03:03:14.474Z,4.10
2023-05-09T03:05:42.598Z,4.00
2023-05-09T03:08:11.367Z,4.00
2023-05-09T03:10:39.097Z,4.00
2023-05-09T03:13:09.319Z,4.00
2023-05-09T03:15:37.204Z,4.00
2023-05-09T03:18:06.521Z,4.00
2023-05-09T03:20:34.344Z,4.10
2023-05-09T03:23:03.146Z,4.10
2023-05-09T03:25:31.108Z,4.20
2023-05-09T03:27:59.300Z,4.20
2023-05-09T03:30:27.955Z,4.20
2023-05-09T03:32:57.304Z,4.20
2023-05-09T03:35:25.133Z,4.30
2023-05-09T03:37:55.305Z,4.40
2023-05-09T03:40:23.398Z,4.50
2023-05-09T03:42:59.383Z,4.50
2023-05-09T03:45:27.536Z,4.70
2023-05-09T03:47:56.160Z,4.80
2023-05-09T03:50:25.892Z,5.00
2023-05-09T03:52:57.337Z,5.10
2023-05-09T03:55:25.174Z,5.30
2023-05-09T03:57:53.592Z,5.50
2023-05-09T04:00:22.339Z,5.60
2023-05-09T04:03:02.639Z,5.70
2023-05-09T04:05:37.545Z,5.90
2023-05-09T04:08:07.810Z,6.10
2023-05-09T04:10:35.571Z,6.30
2023-05-09T04:13:05.336Z,6.40
2023-05-09T04:15:33.151Z,6.60
2023-05-09T04:18:01.335Z,6.80
2023-05-09T04:20:29.334Z,7.00
2023-05-09T04:22:59.272Z,7.20
2023-05-09T04:25:27.379Z,7.50
2023-05-09T04:27:56.287Z,7.70
2023-05-09T04:30:27.376Z,7.80
2023-05-09T04:32:56.618Z,8.00
2023-05-09T04:35:24.638Z,8.10
2023-05-09T04:37:54.669Z,8.20
2023-05-09T04:40:25.445Z,8.40
2023-05-09T04:42:59.264Z,8.60
2023-05-09T04:45:30.547Z,9.00
2023-05-09T04:48:00.069Z,9.30
2023-05-09T04:50:28.249Z,9.60
2023-05-09T04:52:57.523Z,10.00
2023-05-09T04:55:25.421Z,10.30
2023-05-09T04:57:56.449Z,10.70
2023-05-09T05:00:24.613Z,11.10
2023-05-09T05:02:53.079Z,11.40
2023-05-09T05:05:25.521Z,11.70
2023-05-09T05:07:55.301Z,11.90
2023-05-09T05:10:27.696Z,12.10
2023-05-09T05:13:03.937Z,12.50
2023-05-09T05:15:31.813Z,12.80
2023-05-09T05:18:00.416Z,12.90
2023-05-09T05:20:36.235Z,13.10
2023-05-09T05:23:05.067Z,13.20
2023-05-09T05:25:33.827Z,13.20
2023-05-09T05:28:03.520Z,13.50
2023-05-09T05:30:33.972Z,13.80
2023-05-09T05:33:04.188Z,14.20
2023-05-09T05:35:32.268Z,14.60
2023-05-09T05:38:02.385Z,14.90
2023-05-09T05:40:30.310Z,15.10
2023-05-09T05:43:02.049Z,15.40
2023-05-09T05:45:32.050Z,15.80
2023-05-09T05:48:03.030Z,16.00
2023-05-09T05:50:32.497Z,16.10
2023-05-09T05:53:01.315Z,16.20
2023-05-09T05:55:30.699Z,16.40
2023-05-09T05:58:00.578Z,16.50
2023-05-09T06:00:28.977Z,16.70
2023-05-09T06:03:05.159Z,17.20
2023-05-09T06:05:48.487Z,17.50
2023-05-09T06:08:17.300Z,17.60
2023-05-09T06:10:45.076Z,18.00
2023-05-09T06:13:14.353Z,18.30
2023-05-09T06:15:46.629Z,18.70
2023-05-09T06:18:14.963Z,19.20
2023-05-09T06:20:42.738Z,19.50
2023-05-09T06:23:11.112Z,19.80
2023-05-09T06:25:38.896Z,20.10
2023-05-09T06:28:08.115Z,20.30
2023-05-09T06:30:37.399Z,20.10
2023-05-09T06:33:05.819Z,20.00
2023-05-09T06:35:33.553Z,20.00
2023-05-09T06:38:01.682Z,19.90
2023-05-09T06:40:30.054Z,20.00
2023-05-09T06:42:58.378Z,20.00
2023-05-09T06:45:27.719Z,19.60
2023-05-09T06:47:56.137Z,19.40
2023-05-09T06:50:24.020Z,19.50
2023-05-09T06:52:52.445Z,19.70
2023-05-09T06:55:22.374Z,20.00
2023-05-09T06:57:50.926Z,20.00
2023-05-09T07:00:19.157Z,20.00
2023-05-09T07:02:47.355Z,20.40
2023-05-09T07:05:16.755Z,20.30
2023-05-09T07:07:45.312Z,20.00
2023-05-09T07:10:13.404Z,20.00
2023-05-09T07:12:43.038Z,20.30
2023-05-09T07:15:11.476Z,20.50
2023-05-09T07:17:40.964Z,20.50
2023-05-09T07:20:09.474Z,20.70
2023-05-09T07:22:38.981Z,21.00
2023-05-09T07:25:09.071Z,20.80
2023-05-09T07:27:37.982Z,20.60
2023-05-09T07:30:07.122Z,20.60
2023-05-09T07:32:36.326Z,20.70
2023-05-09T07:35:04.552Z,20.80
2023-05-09T07:37:32.981Z,20.80
2023-05-09T07:40:01.264Z,20.80
2023-05-09T07:42:30.740Z,21.20
2023-05-09T07:45:00.033Z,21.50
2023-05-09T07:47:28.266Z,21.50
2023-05-09T07:49:56.235Z,21.50
2023-05-09T07:52:24.614Z,21.30
2023-05-09T07:54:52.411Z,21.00
2023-05-09T07:57:20.789Z,20.90
2023-05-09T07:59:48.657Z,20.70
2023-05-09T08:02:17.186Z,20.80
2023-05-09T08:04:49.272Z,21.40
2023-05-09T08:07:19.027Z,22.00
2023-05-09T08:09:47.565Z,22.30
2023-05-09T08:12:15.890Z,22.50
2023-05-09T08:14:44.175Z,22.10
2023-05-09T08:17:12.605Z,22.00
2023-05-09T08:19:42.042Z,22.10
2023-05-09T08:22:16.330Z,22.30
2023-05-09T08:24:45.402Z,22.70
2023-05-09T08:27:15.222Z,22.70
2023-05-09T08:29:43.892Z,22.90
2023-05-09T08:32:11.993Z,22.90
2023-05-09T08:34:39.796Z,23.30
2023-05-09T08:37:08.203Z,23.40
2023-05-09T08:39:36.447Z,23.40
2023-05-09T08:42:04.841Z,23.50
2023-05-09T08:44:32.637Z,23.50
2023-05-09T08:47:03.966Z,23.60
2023-05-09T08:49:32.132Z,23.40
2023-05-09T08:52:00.638Z,23.00
2023-05-09T08:54:30.365Z,22.90
2023-05-09T08:56:58.799Z,22.70
2023-05-09T08:59:27.512Z,23.20
2023-05-09T09:01:55.905Z,23.70
2023-05-09T09:04:24.022Z,23.50
2023-05-09T09:06:54.293Z,23.20
2023-05-09T09:09:23.223Z,23.20
2023-05-09T09:11:53.624Z,23.10
2023-05-09T09:14:27.947Z,23.00
2023-05-09T09:16:57.595Z,22.70
2023-05-09T09:19:30.967Z,22.80
2023-05-09T09:22:02.344Z,22.90
2023-05-09T09:24:31.160Z,23.10
2023-05-09T09:27:06.809Z,23.30
2023-05-09T09:29:35.268Z,23.40
2023-05-09T09:32:05.778Z,23.50
2023-05-09T09:34:34.796Z,23.50
2023-05-09T09:37:03.096Z,23.80
2023-05-09T09:39:31.221Z,24.00
2023-05-09T09:42:11.310Z,24.20
2023-05-09T09:44:39.517Z,23.90
2023-05-09T09:47:10.857Z,23.90
2023-05-09T09:49:46.225Z,23.60
2023-05-09T09:52:25.184Z,23.60
2023-05-09T09:54:57.067Z,23.60
2023-05-09T09:57:37.355Z,23.60
2023-05-09T10:00:06.812Z,23.50
2023-05-09T10:02:35.144Z,23.50
2023-05-09T10:05:09.413Z,23.40
2023-05-09T10:07:37.957Z,23.50
2023-05-09T10:10:06.569Z,23.70
2023-05-09T10:12:37.148Z,23.90
2023-05-09T10:15:07.688Z,23.70
2023-05-09T10:17:36.721Z,23.60
2023-05-09T10:20:06.624Z,23.60
2023-05-09T10:22:36.812Z,23.40
2023-05-09T10:25:11.021Z,23.60
2023-05-09T10:27:45.728Z,23.60
2023-05-09T10:30:24.168Z,23.50
2023-05-09T10:32:58.256Z,23.50
2023-05-09T10:35:30.586Z,23.40
2023-05-09T10:38:00.202Z,23.50
2023-05-09T10:40:29.604Z,23.50
2023-05-09T10:42:58.700Z,23.50
2023-05-09T10:45:27.244Z,23.90
2023-05-09T10:47:57.332Z,24.20
2023-05-09T10:50:26.293Z,24.20
2023-05-09T10:53:15.563Z,24.40
2023-05-09T10:55:59.294Z,24.50
2023-05-09T10:58:29.072Z,24.70
2023-05-09T11:00:58.817Z,25.00
2023-05-09T11:03:30.366Z,24.70
2023-05-09T11:05:59.214Z,24.60
2023-05-09T11:08:29.925Z,24.40
2023-05-09T11:11:01.001Z,24.40
2023-05-09T11:13:36.663Z,24.50
2023-05-09T11:16:05.625Z,24.40
2023-05-09T11:18:34.276Z,24.20
2023-05-09T11:21:10.012Z,24.40
2023-05-09T11:23:39.703Z,24.50
2023-05-09T11:26:09.253Z,24.50
2023-05-09T11:28:38.928Z,24.50
2023-05-09T11:31:10.802Z,24.20
2023-05-09T11:33:40.611Z,23.90
2023-05-09T11:36:20.409Z,23.50
2023-05-09T11:38:49.457Z,23.30
2023-05-09T11:41:17.817Z,23.30
2023-05-09T11:43:46.280Z,23.40
2023-05-09T11:46:15.761Z,23.30
2023-05-09T11:48:43.817Z,23.60
2023-05-09T11:51:19.427Z,23.80
2023-05-09T11:53:54.363Z,23.90
2023-05-09T11:56:23.507Z,23.60
2023-05-09T11:58:52.554Z,23.50
2023-05-09T12:01:21.064Z,23.60
2023-05-09T12:03:51.202Z,23.60
2023-05-09T12:06:20.124Z,23.60
2023-05-09T12:08:48.615Z,23.60
2023-05-09T12:11:16.538Z,23.70
2023-05-09T12:13:52.718Z,24.10
2023-05-09T12:16:21.564Z,24.10
2023-05-09T12:18:51.952Z,23.80
2023-05-09T12:21:20.969Z,23.50
2023-05-09T12:23:51.300Z,23.00
2023-05-09T12:26:23.046Z,22.60
2023-05-09T12:28:52.326Z,22.20
2023-05-09T12:31:21.578Z,22.10
2023-05-09T12:33:49.908Z,22.10
2023-05-09T12:36:19.111Z,22.10
2023-05-09T12:38:56.951Z,21.80
2023-05-09T12:43:56.411Z,21.50
2023-05-09T12:46:24.533Z,21.30
2023-05-09T12:48:53.186Z,21.10
2023-05-09T12:51:22.896Z,21.10
2023-05-09T12:53:53.516Z,21.10
2023-05-09T12:56:24.595Z,20.90
2023-05-09T12:58:56.430Z,20.60
2023-05-09T13:01:28.778Z,20.50
2023-05-09T13:04:05.467Z,20.30
2023-05-09T13:06:34.085Z,20.00
2023-05-09T13:09:09.241Z,19.80
2023-05-09T13:11:38.246Z,19.50
2023-05-09T13:14:06.694Z,19.50
2023-05-09T13:16:37.393Z,19.40
2023-05-09T13:19:05.802Z,19.30
2023-05-09T13:21:34.365Z,19.30
2023-05-09T13:24:03.310Z,19.20
2023-05-09T13:26:31.596Z,19.00
2023-05-09T13:29:01.201Z,18.80
2023-05-09T13:31:29.161Z,18.60
2023-05-09T13:33:57.484Z,18.70
2023-05-09T13:36:25.594Z,18.80
2023-05-09T13:38:54.248Z,18.90
2023-05-09T13:41:23.981Z,18.60
2023-05-09T13:43:52.342Z,18.30
2023-05-09T13:46:20.287Z,18.00
2023-05-09T13:48:48.961Z,17.80
2023-05-09T13:51:16.927Z,17.60
2023-05-09T13:53:47.672Z,17.50
2023-05-09T13:56:15.516Z,17.50
2023-05-09T13:58:44.143Z,17.50
2023-05-09T14:01:12.240Z,17.40
2023-05-09T14:03:40.593Z,17.30
2023-05-09T14:06:09.855Z,17.20
2023-05-09T14:08:38.031Z,17.10
2023-05-09T14:11:06.146Z,17.10
2023-05-09T14:13:34.587Z,17.20
2023-05-09T14:16:02.711Z,17.20
2023-05-09T14:18:32.115Z,17.00
2023-05-09T14:20:59.969Z,17.00
2023-05-09T14:23:28.300Z,17.00
2023-05-09T14:25:57.714Z,17.10
2023-05-09T14:28:26.195Z,17.00
2023-05-09T14:30:53.983Z,17.00
2023-05-09T14:33:22.537Z,16.90
2023-05-09T14:35:50.945Z,16.90
2023-05-09T14:38:19.352Z,16.90
2023-05-09T14:40:47.172Z,16.90
2023-05-09T14:43:16.845Z,16.90
2023-05-09T14:45:44.672Z,16.90
2023-05-09T14:48:15.874Z,16.80
2023-05-09T14:50:43.869Z,16.80
2023-05-09T14:53:13.071Z,16.80
2023-05-09T14:55:41.517Z,16.80
2023-05-09T14:58:10.149Z,16.80
2023-05-09T15:00:37.982Z,16.90
2023-05-09T15:03:06.293Z,16.80
2023-05-09T15:05:34.511Z,16.90
2023-05-09T15:08:02.970Z,16.90
2023-05-09T15:10:32.280Z,16.80
2023-05-09T15:13:01.020Z,16.90
2023-05-09T15:15:31.420Z,17.00
2023-05-09T15:17:59.384Z,17.00
2023-05-09T15:20:27.954Z,17.00
2023-05-09T15:22:55.883Z,17.00
2023-05-09T15:25:25.561Z,17.00
2023-05-09T15:27:53.562Z,17.00
2023-05-09T15:30:22.625Z,17.00
2023-05-09T15:32:50.418Z,16.90
2023-05-09T15:35:19.037Z,16.90
2023-05-09T15:37:46.882Z,16.90
2023-05-09T15:40:15.376Z,17.00
2023-05-09T15:42:43.733Z,17.00
2023-05-09T15:45:12.162Z,16.90
2023-05-09T15:47:40.241Z,16.80
2023-05-09T15:50:09.114Z,16.80
2023-05-09T15:52:37.197Z,16.80
2023-05-09T15:55:05.893Z,16.70
2023-05-09T15:57:33.786Z,16.70
2023-05-09T16:00:02.276Z,16.70
2023-05-09T16:02:41.142Z,16.70
2023-05-09T16:05:09.893Z,16.70
2023-05-09T16:07:37.759Z,16.70
2023-05-09T16:10:06.750Z,16.60
2023-05-09T16:12:34.595Z,16.60
2023-05-09T16:15:02.806Z,16.50
2023-05-09T16:17:33.221Z,16.40
2023-05-09T16:20:02.419Z,16.40
2023-05-09T16:22:30.292Z,16.40
2023-05-09T16:24:58.661Z,16.40
2023-05-09T16:27:26.823Z,16.20
2023-05-09T16:29:56.201Z,16.20
2023-05-09T16:32:24.644Z,16.20
2023-05-09T16:34:52.982Z,16.20
2023-05-09T16:37:24.945Z,16.10
2023-05-09T16:39:53.726Z,16.10
2023-05-09T16:42:31.550Z,16.00
2023-05-09T16:45:00.463Z,16.00
2023-05-09T16:47:28.413Z,16.00
2023-05-09T16:49:56.691Z,16.00
2023-05-09T16:52:25.649Z,15.90
2023-05-09T16:54:55.154Z,15.80
2023-05-09T16:57:23.323Z,15.80
2023-05-09T16:59:52.077Z,15.70
2023-05-09T17:02:22.190Z,15.60
2023-05-09T17:04:50.524Z,15.60
2023-05-09T17:07:18.386Z,15.50
2023-05-09T17:09:48.893Z,15.50
2023-05-09T17:12:18.612Z,15.40
2023-05-09T17:14:50.553Z,15.30
2023-05-09T17:17:18.376Z,15.30
2023-05-09T17:19:47.020Z,15.20
2023-05-09T17:22:16.387Z,15.20
2023-05-09T17:24:45.093Z,15.10
2023-05-09T17:27:12.897Z,15.00
2023-05-09T17:29:43.733Z,14.90
2023-05-09T17:32:11.727Z,14.90
2023-05-09T17:34:41.352Z,14.80
2023-05-09T17:37:09.769Z,14.80
2023-05-09T17:39:38.643Z,14.70
2023-05-09T17:42:07.330Z,14.70
2023-05-09T17:44:35.535Z,14.60
2023-05-09T17:47:04.651Z,14.50
2023-05-09T17:49:32.904Z,14.40
2023-05-09T17:52:00.697Z,14.40
2023-05-09T17:54:30.166Z,14.30
2023-05-09T17:57:01.859Z,14.20
2023-05-09T17:59:30.960Z,14.10
2023-05-09T18:01:58.949Z,14.00
2023-05-09T18:04:30.682Z,13.90
2023-05-09T18:06:58.483Z,13.90
2023-05-09T18:09:27.271Z,13.80
2023-05-09T18:11:55.257Z,13.70
2023-05-09T18:14:23.676Z,13.60
2023-05-09T18:16:52.123Z,13.50
2023-05-09T18:19:20.688Z,13.50
2023-05-09T18:21:48.654Z,13.50
2023-05-09T18:24:22.525Z,13.30
2023-05-09T18:26:50.385Z,13.30
2023-05-09T18:29:18.583Z,13.10
2023-05-09T18:31:46.438Z,13.10
2023-05-09T18:34:14.774Z,13.00
2023-05-09T18:36:42.742Z,12.90
2023-05-09T18:39:12.320Z,12.80
2023-05-09T18:41:40.249Z,12.70
2023-05-09T18:44:09.066Z,12.70
2023-05-09T18:46:38.134Z,12.50
2023-05-09T18:49:06.625Z,12.50
2023-05-09T18:51:36.252Z,12.50
2023-05-09T18:54:04.605Z,12.50
2023-05-09T18:56:39.905Z,12.30
2023-05-09T18:59:28.806Z,12.30
2023-05-09T19:01:57.205Z,12.20
2023-05-09T19:04:26.416Z,12.10
2023-05-09T19:06:55.842Z,12.10
2023-05-09T19:09:24.556Z,12.00
2023-05-09T19:11:55.120Z,11.90
2023-05-09T19:14:25.028Z,11.90
2023-05-09T19:16:55.382Z,11.90
2023-05-09T19:19:25.663Z,11.70
2023-05-09T19:21:56.439Z,11.70
2023-05-09T19:24:25.586Z,11.70
2023-05-09T19:26:55.961Z,11.60
2023-05-09T19:29:24.479Z,11.50
2023-05-09T19:31:53.229Z,11.50
2023-05-09T19:34:24.096Z,11.50
2023-05-09T19:36:54.760Z,11.40
2023-05-09T19:39:24.594Z,11.40
2023-05-09T19:41:53.506Z,11.40
2023-05-09T19:44:25.767Z,11.30
2023-05-09T19:46:56.116Z,11.30
2023-05-09T19:49:28.717Z,11.30
2023-05-09T19:51:59.595Z,11.20
2023-05-09T19:54:34.599Z,11.20
2023-05-09T19:57:06.652Z,11.10
2023-05-09T19:59:35.445Z,11.10
2023-05-09T20:02:05.147Z,11.10
2023-05-09T20:04:37.045Z,11.10
2023-05-09T20:07:06.382Z,11.00
2023-05-09T20:09:36.915Z,11.00
2023-05-09T20:12:06.454Z,11.00
2023-05-09T20:14:36.605Z,10.90
2023-05-09T20:17:06.293Z,10.80
2023-05-09T20:19:35.494Z,10.70
2023-05-09T20:22:05.229Z,10.70
2023-05-09T20:24:36.291Z,10.60
2023-05-09T20:27:07.263Z,10.50
2023-05-09T20:29:36.439Z,10.50
2023-05-09T20:32:05.346Z,10.40
2023-05-09T20:34:36.174Z,10.40
2023-05-09T20:37:07.098Z,10.30
2023-05-09T20:39:38.121Z,10.30
2023-05-09T20:42:07.723Z,10.30
2023-05-09T20:44:40.224Z,10.20
2023-05-09T20:47:09.529Z,10.20
2023-05-09T20:49:39.576Z,10.10
2023-05-09T20:52:08.125Z,10.10
2023-05-09T20:54:36.775Z,10.00
2023-05-09T20:57:04.829Z,10.00
2023-05-09T20:59:34.270Z,10.00
2023-05-09T21:02:03.083Z,10.00
2023-05-09T21:04:31.408Z,9.80
2023-05-09T21:06:59.699Z,9.80
2023-05-09T21:09:27.834Z,9.70
2023-05-09T21:11:55.724Z,9.70
2023-05-09T21:14:24.237Z,9.70
2023-05-09T21:16:55.295Z,9.60
2023-05-09T21:19:24.103Z,9.60
2023-05-09T21:21:51.846Z,9.60
2023-05-09T21:24:20.031Z,9.60
2023-05-09T21:26:47.792Z,9.50
2023-05-09T21:29:15.977Z,9.50
2023-05-09T21:31:43.961Z,9.50
2023-05-09T21:34:12.166Z,9.50
2023-05-09T21:36:40.893Z,9.50
2023-05-09T21:39:09.928Z,9.50
2023-05-09T21:41:40.333Z,9.50
2023-05-09T21:44:09.054Z,9.40
2023-05-09T21:46:37.038Z,9.40
2023-05-09T21:49:07.677Z,9.40
2023-05-09T21:51:35.900Z,9.40
2023-05-09T21:54:04.207Z,9.40
2023-05-09T21:56:32.972Z,9.40
2023-05-09T21:59:01.328Z,9.40
2023-05-09T22:01:29.347Z,9.30
2023-05-09T22:03:58.485Z,9.20
2023-05-09T22:06:26.718Z,9.20
2023-05-09T22:08:55.149Z,9.20
2023-05-09T22:11:27.723Z,9.20
2023-05-09T22:13:56.152Z,9.20
2023-05-09T22:16:24.243Z,9.10
2023-05-09T22:18:54.083Z,9.00
2023-05-09T22:21:22.093Z,9.00
2023-05-09T22:23:50.567Z,9.00
2023-05-09T22:26:18.533Z,9.00
2023-05-09T22:28:47.001Z,9.00
2023-05-09T22:31:15.075Z,8.90
2023-05-09T22:33:44.405Z,9.00
2023-05-09T22:36:12.452Z,8.90
2023-05-09T22:38:42.018Z,8.90
2023-05-09T22:41:10.128Z,8.90
2023-05-09T22:43:39.776Z,8.90
2023-05-09T22:46:08.213Z,8.80
2023-05-09T22:48:39.374Z,8.80
2023-05-09T22:51:07.503Z,8.80
2023-05-09T22:53:36.146Z,8.80
2023-05-09T22:56:04.727Z,8.80
2023-05-09T22:58:33.564Z,8.80
2023-05-09T23:01:01.739Z,8.70
2023-05-09T23:03:30.228Z,8.70
2023-05-09T23:05:58.470Z,8.60
2023-05-09T23:08:27.578Z,8.60
2023-05-09T23:10:56.007Z,8.60
2023-05-09T23:13:24.504Z,8.50
2023-05-09T23:15:52.758Z,8.50
2023-05-09T23:18:21.527Z,8.50
2023-05-09T23:20:49.588Z,8.40
2023-05-09T23:23:18.201Z,8.40
2023-05-09T23:25:46.434Z,8.40
2023-05-09T23:28:14.849Z,8.30
2023-05-09T23:30:42.632Z,8.30
2023-05-09T23:33:11.059Z,8.20
2023-05-09T23:35:39.043Z,8.20
2023-05-09T23:38:07.570Z,8.10
2023-05-09T23:40:36.001Z,8.10
2023-05-09T23:43:04.178Z,8.00
2023-05-09T23:45:32.419Z,8.00
2023-05-09T23:48:00.929Z,7.90
2023-05-09T23:50:28.932Z,7.80
2023-05-09T23:52:57.562Z,7.80
2023-05-09T23:55:25.603Z,7.60
2023-05-09T23:57:54.613Z,7.60
